sensor_id;sensor_type;location;lat;lon;timestamp;P1;durP1;ratioP1;P2;durP2;ratioP2
12314;SDS011;23886;46.614;14.276;2023-02-08T00:01:33;16.77;;;11.10;;
12314;SDS011;23886;46.614;14.276;2023-02-08T00:04:00;18.73;;;11.40;;
12314;SDS011;23886;46.614;14.276;2023-02-08T00:06:27;20.23;;;11.90;;
12314;SDS011;23886;46.614;14.276;2023-02-08T00:08:54;19.37;;;11.53;;
12314;SDS011;23886;46.614;14.276;2023-02-08T00:11:21;17.10;;;11.17;;
12314;SDS011;23886;46.614;14.276;2023-02-08T00:13:48;16.57;;;10.83;;
12314;SDS011;23886;46.614;14.276;2023-02-08T00:16:15;19.30;;;10.93;;
12314;SDS011;23886;46.614;14.276;2023-02-08T00:18:44;17.00;;;11.37;;
12314;SDS011;23886;46.614;14.276;2023-02-08T00:21:12;19.00;;;12.17;;
12314;SDS011;23886;46.614;14.276;2023-02-08T00:23:41;19.30;;;10.77;;
12314;SDS011;23886;46.614;14.276;2023-02-08T00:26:08;18.57;;;11.50;;
12314;SDS011;23886;46.614;14.276;2023-02-08T00:28:36;18.63;;;11.67;;
12314;SDS011;23886;46.614;14.276;2023-02-08T00:31:03;18.97;;;10.97;;
12314;SDS011;23886;46.614;14.276;2023-02-08T00:33:30;16.57;;;10.80;;
12314;SDS011;23886;46.614;14.276;2023-02-08T00:35:59;16.83;;;10.63;;
12314;SDS011;23886;46.614;14.276;2023-02-08T00:38:27;22.40;;;10.93;;
12314;SDS011;23886;46.614;14.276;2023-02-08T00:40:54;14.93;;;9.67;;
12314;SDS011;23886;46.614;14.276;2023-02-08T00:43:21;16.80;;;10.50;;
12314;SDS011;23886;46.614;14.276;2023-02-08T00:45:52;15.97;;;10.13;;
12314;SDS011;23886;46.614;14.276;2023-02-08T00:48:19;16.00;;;9.93;;
12314;SDS011;23886;46.614;14.276;2023-02-08T00:50:55;17.83;;;10.83;;
12314;SDS011;23886;46.614;14.276;2023-02-08T00:53:24;18.47;;;10.27;;
12314;SDS011;23886;46.614;14.276;2023-02-08T00:55:51;18.67;;;10.23;;
12314;SDS011;23886;46.614;14.276;2023-02-08T00:58:19;15.83;;;10.37;;
12314;SDS011;23886;46.614;14.276;2023-02-08T01:00:46;15.67;;;9.70;;
12314;SDS011;23886;46.614;14.276;2023-02-08T01:03:16;13.80;;;9.30;;
12314;SDS011;23886;46.614;14.276;2023-02-08T01:05:43;15.67;;;10.17;;
12314;SDS011;23886;46.614;14.276;2023-02-08T01:08:10;14.07;;;9.20;;
12314;SDS011;23886;46.614;14.276;2023-02-08T01:10:39;14.27;;;8.97;;
12314;SDS011;23886;46.614;14.276;2023-02-08T01:13:05;13.83;;;9.57;;
12314;SDS011;23886;46.614;14.276;2023-02-08T01:15:33;14.90;;;9.03;;
12314;SDS011;23886;46.614;14.276;2023-02-08T01:18:00;16.23;;;9.53;;
12314;SDS011;23886;46.614;14.276;2023-02-08T01:20:27;14.67;;;9.23;;
12314;SDS011;23886;46.614;14.276;2023-02-08T01:22:54;13.00;;;8.67;;
12314;SDS011;23886;46.614;14.276;2023-02-08T01:25:22;12.70;;;8.27;;
12314;SDS011;23886;46.614;14.276;2023-02-08T01:27:50;11.37;;;8.20;;
12314;SDS011;23886;46.614;14.276;2023-02-08T01:30:19;15.27;;;8.03;;
12314;SDS011;23886;46.614;14.276;2023-02-08T01:32:46;12.27;;;7.60;;
12314;SDS011;23886;46.614;14.276;2023-02-08T01:35:13;12.87;;;8.07;;
12314;SDS011;23886;46.614;14.276;2023-02-08T01:37:40;10.63;;;7.37;;
12314;SDS011;23886;46.614;14.276;2023-02-08T01:40:07;9.27;;;6.97;;
12314;SDS011;23886;46.614;14.276;2023-02-08T01:42:35;10.53;;;7.43;;
12314;SDS011;23886;46.614;14.276;2023-02-08T01:47:57;11.60;;;6.93;;
12314;SDS011;23886;46.614;14.276;2023-02-08T01:50:30;10.53;;;7.43;;
12314;SDS011;23886;46.614;14.276;2023-02-08T01:53:01;10.87;;;6.73;;
12314;SDS011;23886;46.614;14.276;2023-02-08T01:55:30;11.00;;;7.20;;
12314;SDS011;23886;46.614;14.276;2023-02-08T01:58:02;13.33;;;7.07;;
12314;SDS011;23886;46.614;14.276;2023-02-08T02:00:32;9.67;;;6.60;;
12314;SDS011;23886;46.614;14.276;2023-02-08T02:03:00;9.70;;;6.50;;
12314;SDS011;23886;46.614;14.276;2023-02-08T02:05:29;9.70;;;6.80;;
12314;SDS011;23886;46.614;14.276;2023-02-08T02:08:00;9.17;;;6.70;;
12314;SDS011;23886;46.614;14.276;2023-02-08T02:10:28;9.10;;;6.63;;
12314;SDS011;23886;46.614;14.276;2023-02-08T02:13:02;9.10;;;6.13;;
12314;SDS011;23886;46.614;14.276;2023-02-08T02:15:31;11.07;;;7.03;;
12314;SDS011;23886;46.614;14.276;2023-02-08T02:17:59;12.07;;;7.60;;
12314;SDS011;23886;46.614;14.276;2023-02-08T02:20:32;9.63;;;6.97;;
12314;SDS011;23886;46.614;14.276;2023-02-08T02:26:28;11.57;;;7.10;;
12314;SDS011;23886;46.614;14.276;2023-02-08T02:29:21;11.83;;;7.30;;
12314;SDS011;23886;46.614;14.276;2023-02-08T02:32:11;10.57;;;7.07;;
12314;SDS011;23886;46.614;14.276;2023-02-08T02:34:46;10.40;;;6.93;;
12314;SDS011;23886;46.614;14.276;2023-02-08T02:37:22;10.40;;;7.73;;
12314;SDS011;23886;46.614;14.276;2023-02-08T02:40:01;9.00;;;6.73;;
12314;SDS011;23886;46.614;14.276;2023-02-08T02:42:40;11.50;;;6.47;;
12314;SDS011;23886;46.614;14.276;2023-02-08T02:45:43;11.10;;;7.17;;
12314;SDS011;23886;46.614;14.276;2023-02-08T02:48:18;10.70;;;7.27;;
12314;SDS011;23886;46.614;14.276;2023-02-08T02:50:55;9.23;;;6.97;;
12314;SDS011;23886;46.614;14.276;2023-02-08T02:53:27;9.63;;;6.97;;
12314;SDS011;23886;46.614;14.276;2023-02-08T02:55:59;10.50;;;5.97;;
12314;SDS011;23886;46.614;14.276;2023-02-08T02:58:32;9.83;;;6.63;;
12314;SDS011;23886;46.614;14.276;2023-02-08T03:01:02;10.63;;;6.47;;
12314;SDS011;23886;46.614;14.276;2023-02-08T03:03:31;13.00;;;7.13;;
12314;SDS011;23886;46.614;14.276;2023-02-08T03:06:00;12.67;;;7.40;;
12314;SDS011;23886;46.614;14.276;2023-02-08T03:08:34;8.87;;;6.60;;
12314;SDS011;23886;46.614;14.276;2023-02-08T03:11:22;11.10;;;6.90;;
12314;SDS011;23886;46.614;14.276;2023-02-08T03:14:00;12.47;;;6.57;;
12314;SDS011;23886;46.614;14.276;2023-02-08T03:16:40;12.77;;;7.47;;
12314;SDS011;23886;46.614;14.276;2023-02-08T03:19:24;11.80;;;6.83;;
12314;SDS011;23886;46.614;14.276;2023-02-08T03:21:57;10.13;;;6.80;;
12314;SDS011;23886;46.614;14.276;2023-02-08T03:24:30;11.03;;;7.00;;
12314;SDS011;23886;46.614;14.276;2023-02-08T03:27:03;10.97;;;6.87;;
12314;SDS011;23886;46.614;14.276;2023-02-08T03:29:38;11.57;;;7.03;;
12314;SDS011;23886;46.614;14.276;2023-02-08T03:32:10;10.90;;;7.03;;
12314;SDS011;23886;46.614;14.276;2023-02-08T03:34:45;14.53;;;7.50;;
12314;SDS011;23886;46.614;14.276;2023-02-08T03:37:17;10.97;;;7.50;;
12314;SDS011;23886;46.614;14.276;2023-02-08T03:39:48;11.77;;;7.57;;
12314;SDS011;23886;46.614;14.276;2023-02-08T03:42:18;12.93;;;7.87;;
12314;SDS011;23886;46.614;14.276;2023-02-08T03:44:50;12.10;;;7.43;;
12314;SDS011;23886;46.614;14.276;2023-02-08T03:47:21;16.53;;;9.90;;
12314;SDS011;23886;46.614;14.276;2023-02-08T03:49:52;16.40;;;10.27;;
12314;SDS011;23886;46.614;14.276;2023-02-08T03:52:25;14.60;;;9.77;;
12314;SDS011;23886;46.614;14.276;2023-02-08T03:54:56;12.47;;;8.90;;
12314;SDS011;23886;46.614;14.276;2023-02-08T03:57:27;12.67;;;8.43;;
12314;SDS011;23886;46.614;14.276;2023-02-08T03:59:59;10.87;;;7.27;;
12314;SDS011;23886;46.614;14.276;2023-02-08T04:02:29;11.27;;;7.97;;
12314;SDS011;23886;46.614;14.276;2023-02-08T04:05:00;11.27;;;7.77;;
12314;SDS011;23886;46.614;14.276;2023-02-08T04:07:29;12.87;;;8.30;;
12314;SDS011;23886;46.614;14.276;2023-02-08T04:09:56;11.90;;;8.07;;
12314;SDS011;23886;46.614;14.276;2023-02-08T04:12:23;12.30;;;7.70;;
12314;SDS011;23886;46.614;14.276;2023-02-08T04:14:50;11.60;;;7.93;;
12314;SDS011;23886;46.614;14.276;2023-02-08T04:17:17;12.43;;;7.90;;
12314;SDS011;23886;46.614;14.276;2023-02-08T04:19:44;12.30;;;7.83;;
12314;SDS011;23886;46.614;14.276;2023-02-08T04:22:12;12.90;;;7.80;;
12314;SDS011;23886;46.614;14.276;2023-02-08T04:24:40;10.80;;;7.20;;
12314;SDS011;23886;46.614;14.276;2023-02-08T04:27:06;11.23;;;7.80;;
12314;SDS011;23886;46.614;14.276;2023-02-08T04:29:33;12.70;;;7.17;;
12314;SDS011;23886;46.614;14.276;2023-02-08T04:32:00;11.37;;;7.57;;
12314;SDS011;23886;46.614;14.276;2023-02-08T04:34:27;10.80;;;7.43;;
12314;SDS011;23886;46.614;14.276;2023-02-08T04:36:54;12.00;;;7.90;;
12314;SDS011;23886;46.614;14.276;2023-02-08T04:39:23;11.57;;;7.33;;
12314;SDS011;23886;46.614;14.276;2023-02-08T04:41:50;16.90;;;8.50;;
12314;SDS011;23886;46.614;14.276;2023-02-08T04:44:17;13.67;;;8.70;;
12314;SDS011;23886;46.614;14.276;2023-02-08T04:46:44;12.17;;;8.60;;
12314;SDS011;23886;46.614;14.276;2023-02-08T04:49:10;11.87;;;8.60;;
12314;SDS011;23886;46.614;14.276;2023-02-08T04:51:38;12.03;;;8.67;;
12314;SDS011;23886;46.614;14.276;2023-02-08T04:54:05;13.53;;;7.97;;
12314;SDS011;23886;46.614;14.276;2023-02-08T04:56:34;14.90;;;8.40;;
12314;SDS011;23886;46.614;14.276;2023-02-08T04:59:01;12.93;;;8.30;;
12314;SDS011;23886;46.614;14.276;2023-02-08T05:01:30;12.43;;;8.43;;
12314;SDS011;23886;46.614;14.276;2023-02-08T05:03:57;13.47;;;9.00;;
12314;SDS011;23886;46.614;14.276;2023-02-08T05:06:24;12.33;;;8.60;;
12314;SDS011;23886;46.614;14.276;2023-02-08T05:08:50;14.47;;;8.90;;
12314;SDS011;23886;46.614;14.276;2023-02-08T05:11:18;15.30;;;9.60;;
12314;SDS011;23886;46.614;14.276;2023-02-08T05:13:47;17.00;;;8.30;;
12314;SDS011;23886;46.614;14.276;2023-02-08T05:16:14;13.30;;;9.10;;
12314;SDS011;23886;46.614;14.276;2023-02-08T05:18:42;11.33;;;7.93;;
12314;SDS011;23886;46.614;14.276;2023-02-08T05:21:09;13.90;;;8.80;;
12314;SDS011;23886;46.614;14.276;2023-02-08T05:23:37;14.53;;;9.47;;
12314;SDS011;23886;46.614;14.276;2023-02-08T05:26:04;14.87;;;9.00;;
12314;SDS011;23886;46.614;14.276;2023-02-08T05:28:32;14.27;;;8.73;;
12314;SDS011;23886;46.614;14.276;2023-02-08T05:31:07;16.13;;;9.47;;
12314;SDS011;23886;46.614;14.276;2023-02-08T05:33:35;18.17;;;8.83;;
12314;SDS011;23886;46.614;14.276;2023-02-08T05:36:02;14.00;;;9.00;;
12314;SDS011;23886;46.614;14.276;2023-02-08T05:38:29;13.10;;;8.83;;
12314;SDS011;23886;46.614;14.276;2023-02-08T05:40:56;13.70;;;9.17;;
12314;SDS011;23886;46.614;14.276;2023-02-08T05:43:23;12.50;;;8.43;;
12314;SDS011;23886;46.614;14.276;2023-02-08T05:45:50;15.37;;;9.20;;
12314;SDS011;23886;46.614;14.276;2023-02-08T05:48:19;16.77;;;9.30;;
12314;SDS011;23886;46.614;14.276;2023-02-08T05:50:46;13.77;;;9.80;;
12314;SDS011;23886;46.614;14.276;2023-02-08T05:53:13;18.20;;;10.43;;
12314;SDS011;23886;46.614;14.276;2023-02-08T05:55:42;14.97;;;9.47;;
12314;SDS011;23886;46.614;14.276;2023-02-08T05:58:10;19.03;;;10.83;;
12314;SDS011;23886;46.614;14.276;2023-02-08T06:00:37;18.07;;;11.57;;
12314;SDS011;23886;46.614;14.276;2023-02-08T06:03:04;20.40;;;12.57;;
12314;SDS011;23886;46.614;14.276;2023-02-08T06:05:33;19.00;;;10.80;;
12314;SDS011;23886;46.614;14.276;2023-02-08T06:08:02;26.03;;;13.23;;
12314;SDS011;23886;46.614;14.276;2023-02-08T06:10:29;21.93;;;12.77;;
12314;SDS011;23886;46.614;14.276;2023-02-08T06:12:56;23.43;;;13.30;;
12314;SDS011;23886;46.614;14.276;2023-02-08T06:15:23;25.07;;;13.03;;
12314;SDS011;23886;46.614;14.276;2023-02-08T06:17:50;19.50;;;12.23;;
12314;SDS011;23886;46.614;14.276;2023-02-08T06:20:17;20.57;;;11.73;;
12314;SDS011;23886;46.614;14.276;2023-02-08T06:22:46;28.03;;;15.03;;
12314;SDS011;23886;46.614;14.276;2023-02-08T06:25:13;22.83;;;13.27;;
12314;SDS011;23886;46.614;14.276;2023-02-08T06:27:40;20.03;;;10.70;;
12314;SDS011;23886;46.614;14.276;2023-02-08T06:30:07;21.17;;;10.67;;
12314;SDS011;23886;46.614;14.276;2023-02-08T06:32:35;14.63;;;9.67;;
12314;SDS011;23886;46.614;14.276;2023-02-08T06:35:02;13.47;;;10.00;;
12314;SDS011;23886;46.614;14.276;2023-02-08T06:37:29;24.67;;;13.73;;
12314;SDS011;23886;46.614;14.276;2023-02-08T06:39:57;24.07;;;12.47;;
12314;SDS011;23886;46.614;14.276;2023-02-08T06:42:26;18.00;;;10.87;;
12314;SDS011;23886;46.614;14.276;2023-02-08T06:44:53;22.90;;;12.10;;
12314;SDS011;23886;46.614;14.276;2023-02-08T06:47:22;20.60;;;11.87;;
12314;SDS011;23886;46.614;14.276;2023-02-08T06:49:49;17.93;;;10.30;;
12314;SDS011;23886;46.614;14.276;2023-02-08T06:52:16;20.77;;;9.73;;
12314;SDS011;23886;46.614;14.276;2023-02-08T06:54:44;20.23;;;10.23;;
12314;SDS011;23886;46.614;14.276;2023-02-08T06:57:12;17.63;;;9.70;;
12314;SDS011;23886;46.614;14.276;2023-02-08T06:59:39;15.57;;;9.73;;
12314;SDS011;23886;46.614;14.276;2023-02-08T07:02:09;14.53;;;10.40;;
12314;SDS011;23886;46.614;14.276;2023-02-08T07:04:37;18.80;;;10.00;;
12314;SDS011;23886;46.614;14.276;2023-02-08T07:07:04;19.03;;;9.63;;
12314;SDS011;23886;46.614;14.276;2023-02-08T07:09:32;19.93;;;10.77;;
12314;SDS011;23886;46.614;14.276;2023-02-08T07:11:59;19.97;;;10.33;;
12314;SDS011;23886;46.614;14.276;2023-02-08T07:14:30;20.43;;;11.13;;
12314;SDS011;23886;46.614;14.276;2023-02-08T07:16:57;22.80;;;11.63;;
12314;SDS011;23886;46.614;14.276;2023-02-08T07:19:24;21.50;;;12.40;;
12314;SDS011;23886;46.614;14.276;2023-02-08T07:21:52;22.33;;;12.20;;
12314;SDS011;23886;46.614;14.276;2023-02-08T07:24:19;18.90;;;12.10;;
12314;SDS011;23886;46.614;14.276;2023-02-08T07:26:46;20.17;;;12.00;;
12314;SDS011;23886;46.614;14.276;2023-02-08T07:29:14;17.33;;;11.00;;
12314;SDS011;23886;46.614;14.276;2023-02-08T07:31:42;18.07;;;10.80;;
12314;SDS011;23886;46.614;14.276;2023-02-08T07:34:09;17.43;;;10.50;;
12314;SDS011;23886;46.614;14.276;2023-02-08T07:36:36;15.93;;;10.57;;
12314;SDS011;23886;46.614;14.276;2023-02-08T07:39:03;20.40;;;10.80;;
12314;SDS011;23886;46.614;14.276;2023-02-08T07:41:30;21.17;;;10.83;;
12314;SDS011;23886;46.614;14.276;2023-02-08T07:43:58;15.37;;;10.83;;
12314;SDS011;23886;46.614;14.276;2023-02-08T07:46:25;23.90;;;12.83;;
12314;SDS011;23886;46.614;14.276;2023-02-08T07:48:54;19.67;;;11.30;;
12314;SDS011;23886;46.614;14.276;2023-02-08T07:51:21;15.87;;;10.37;;
12314;SDS011;23886;46.614;14.276;2023-02-08T07:53:48;16.50;;;10.20;;
12314;SDS011;23886;46.614;14.276;2023-02-08T07:56:16;19.13;;;11.63;;
12314;SDS011;23886;46.614;14.276;2023-02-08T07:58:43;16.50;;;10.97;;
12314;SDS011;23886;46.614;14.276;2023-02-08T08:01:10;16.37;;;11.27;;
12314;SDS011;23886;46.614;14.276;2023-02-08T08:03:37;23.43;;;13.33;;
12314;SDS011;23886;46.614;14.276;2023-02-08T08:06:05;20.17;;;12.50;;
12314;SDS011;23886;46.614;14.276;2023-02-08T08:08:32;19.37;;;12.27;;
12314;SDS011;23886;46.614;14.276;2023-02-08T08:10:59;19.93;;;11.70;;
12314;SDS011;23886;46.614;14.276;2023-02-08T08:13:26;20.37;;;12.53;;
12314;SDS011;23886;46.614;14.276;2023-02-08T08:15:53;18.53;;;12.40;;
12314;SDS011;23886;46.614;14.276;2023-02-08T08:18:20;18.13;;;12.93;;
12314;SDS011;23886;46.614;14.276;2023-02-08T08:20:47;18.50;;;12.70;;
12314;SDS011;23886;46.614;14.276;2023-02-08T08:23:16;20.37;;;13.07;;
12314;SDS011;23886;46.614;14.276;2023-02-08T08:25:43;19.63;;;12.93;;
12314;SDS011;23886;46.614;14.276;2023-02-08T08:28:10;16.47;;;11.77;;
12314;SDS011;23886;46.614;14.276;2023-02-08T08:30:37;21.40;;;12.67;;
12314;SDS011;23886;46.614;14.276;2023-02-08T08:33:08;16.87;;;11.50;;
12314;SDS011;23886;46.614;14.276;2023-02-08T08:35:35;17.30;;;12.10;;
12314;SDS011;23886;46.614;14.276;2023-02-08T08:38:02;16.77;;;12.13;;
12314;SDS011;23886;46.614;14.276;2023-02-08T08:40:30;16.57;;;12.07;;
12314;SDS011;23886;46.614;14.276;2023-02-08T08:42:57;18.37;;;12.67;;
12314;SDS011;23886;46.614;14.276;2023-02-08T08:45:24;17.67;;;11.90;;
12314;SDS011;23886;46.614;14.276;2023-02-08T08:47:51;17.60;;;11.70;;
12314;SDS011;23886;46.614;14.276;2023-02-08T08:50:18;18.03;;;11.53;;
12314;SDS011;23886;46.614;14.276;2023-02-08T08:52:45;18.43;;;11.40;;
12314;SDS011;23886;46.614;14.276;2023-02-08T08:55:12;14.53;;;10.93;;
12314;SDS011;23886;46.614;14.276;2023-02-08T08:57:41;19.23;;;9.53;;
12314;SDS011;23886;46.614;14.276;2023-02-08T09:00:08;11.67;;;8.40;;
12314;SDS011;23886;46.614;14.276;2023-02-08T09:02:36;13.23;;;9.63;;
12314;SDS011;23886;46.614;14.276;2023-02-08T09:05:03;12.00;;;8.27;;
12314;SDS011;23886;46.614;14.276;2023-02-08T09:07:32;11.73;;;7.77;;
12314;SDS011;23886;46.614;14.276;2023-02-08T09:09:59;14.03;;;7.90;;
12314;SDS011;23886;46.614;14.276;2023-02-08T09:12:26;10.93;;;7.47;;
12314;SDS011;23886;46.614;14.276;2023-02-08T09:14:54;14.70;;;8.60;;
12314;SDS011;23886;46.614;14.276;2023-02-08T09:17:21;15.77;;;10.10;;
12314;SDS011;23886;46.614;14.276;2023-02-08T09:19:48;13.97;;;10.00;;
12314;SDS011;23886;46.614;14.276;2023-02-08T09:22:15;13.03;;;8.50;;
12314;SDS011;23886;46.614;14.276;2023-02-08T09:24:42;17.30;;;9.70;;
12314;SDS011;23886;46.614;14.276;2023-02-08T09:27:09;14.83;;;9.77;;
12314;SDS011;23886;46.614;14.276;2023-02-08T09:29:36;13.33;;;9.43;;
12314;SDS011;23886;46.614;14.276;2023-02-08T09:32:05;15.77;;;10.80;;
12314;SDS011;23886;46.614;14.276;2023-02-08T09:34:32;16.30;;;9.83;;
12314;SDS011;23886;46.614;14.276;2023-02-08T09:36:59;18.80;;;10.73;;
12314;SDS011;23886;46.614;14.276;2023-02-08T09:39:25;16.70;;;9.33;;
12314;SDS011;23886;46.614;14.276;2023-02-08T09:44:52;17.00;;;10.20;;
12314;SDS011;23886;46.614;14.276;2023-02-08T09:47:29;13.13;;;9.13;;
12314;SDS011;23886;46.614;14.276;2023-02-08T09:50:01;15.73;;;9.80;;
12314;SDS011;23886;46.614;14.276;2023-02-08T09:52:33;18.10;;;10.40;;
12314;SDS011;23886;46.614;14.276;2023-02-08T09:55:09;17.87;;;10.73;;
12314;SDS011;23886;46.614;14.276;2023-02-08T09:57:49;19.50;;;11.37;;
12314;SDS011;23886;46.614;14.276;2023-02-08T10:00:20;17.13;;;9.33;;
12314;SDS011;23886;46.614;14.276;2023-02-08T10:02:56;20.30;;;11.93;;
12314;SDS011;23886;46.614;14.276;2023-02-08T10:05:25;19.27;;;11.53;;
12314;SDS011;23886;46.614;14.276;2023-02-08T10:07:53;16.10;;;10.93;;
12314;SDS011;23886;46.614;14.276;2023-02-08T10:10:23;16.33;;;9.83;;
12314;SDS011;23886;46.614;14.276;2023-02-08T10:13:05;19.30;;;11.20;;
12314;SDS011;23886;46.614;14.276;2023-02-08T10:15:45;21.33;;;11.67;;
12314;SDS011;23886;46.614;14.276;2023-02-08T10:18:19;23.27;;;12.37;;
12314;SDS011;23886;46.614;14.276;2023-02-08T10:21:08;17.67;;;11.43;;
12314;SDS011;23886;46.614;14.276;2023-02-08T10:23:51;16.10;;;10.47;;
12314;SDS011;23886;46.614;14.276;2023-02-08T10:26:33;20.77;;;10.53;;
12314;SDS011;23886;46.614;14.276;2023-02-08T10:29:16;19.00;;;10.93;;
12314;SDS011;23886;46.614;14.276;2023-02-08T10:34:57;16.57;;;10.27;;
12314;SDS011;23886;46.614;14.276;2023-02-08T10:37:26;18.83;;;10.90;;
12314;SDS011;23886;46.614;14.276;2023-02-08T10:39:59;19.13;;;10.90;;
12314;SDS011;23886;46.614;14.276;2023-02-08T10:42:40;16.10;;;11.27;;
12314;SDS011;23886;46.614;14.276;2023-02-08T10:45:14;15.73;;;11.03;;
12314;SDS011;23886;46.614;14.276;2023-02-08T10:47:47;15.27;;;11.20;;
12314;SDS011;23886;46.614;14.276;2023-02-08T10:50:21;21.77;;;10.60;;
12314;SDS011;23886;46.614;14.276;2023-02-08T10:52:54;15.40;;;11.53;;
12314;SDS011;23886;46.614;14.276;2023-02-08T10:55:23;15.23;;;10.67;;
12314;SDS011;23886;46.614;14.276;2023-02-08T10:57:51;18.40;;;11.73;;
12314;SDS011;23886;46.614;14.276;2023-02-08T11:00:24;17.53;;;11.87;;
12314;SDS011;23886;46.614;14.276;2023-02-08T11:02:53;18.87;;;12.40;;
12314;SDS011;23886;46.614;14.276;2023-02-08T11:05:32;19.07;;;13.03;;
12314;SDS011;23886;46.614;14.276;2023-02-08T11:08:04;17.80;;;13.57;;
12314;SDS011;23886;46.614;14.276;2023-02-08T11:10:33;16.50;;;12.60;;
12314;SDS011;23886;46.614;14.276;2023-02-08T11:13:02;19.00;;;12.77;;
12314;SDS011;23886;46.614;14.276;2023-02-08T11:15:33;16.97;;;12.37;;
12314;SDS011;23886;46.614;14.276;2023-02-08T11:18:04;16.87;;;12.90;;
12314;SDS011;23886;46.614;14.276;2023-02-08T11:20:40;17.83;;;12.60;;
12314;SDS011;23886;46.614;14.276;2023-02-08T11:23:16;16.47;;;12.80;;
12314;SDS011;23886;46.614;14.276;2023-02-08T11:25:47;16.90;;;11.90;;
12314;SDS011;23886;46.614;14.276;2023-02-08T11:28:22;20.93;;;12.53;;
12314;SDS011;23886;46.614;14.276;2023-02-08T11:30:54;18.63;;;12.63;;
12314;SDS011;23886;46.614;14.276;2023-02-08T11:33:23;22.37;;;12.77;;
12314;SDS011;23886;46.614;14.276;2023-02-08T11:35:57;16.67;;;11.83;;
12314;SDS011;23886;46.614;14.276;2023-02-08T11:38:26;19.10;;;12.40;;
12314;SDS011;23886;46.614;14.276;2023-02-08T11:40:54;18.43;;;13.30;;
12314;SDS011;23886;46.614;14.276;2023-02-08T11:43:25;19.50;;;13.53;;
12314;SDS011;23886;46.614;14.276;2023-02-08T11:45:54;21.67;;;13.93;;
12314;SDS011;23886;46.614;14.276;2023-02-08T11:48:24;16.70;;;12.93;;
12314;SDS011;23886;46.614;14.276;2023-02-08T11:50:58;17.13;;;13.60;;
12314;SDS011;23886;46.614;14.276;2023-02-08T11:53:27;18.23;;;13.40;;
12314;SDS011;23886;46.614;14.276;2023-02-08T11:56:01;21.23;;;13.90;;
12314;SDS011;23886;46.614;14.276;2023-02-08T11:58:39;19.00;;;13.63;;
12314;SDS011;23886;46.614;14.276;2023-02-08T12:01:16;17.20;;;12.83;;
12314;SDS011;23886;46.614;14.276;2023-02-08T12:03:45;19.40;;;13.67;;
12314;SDS011;23886;46.614;14.276;2023-02-08T12:06:22;17.40;;;12.77;;
12314;SDS011;23886;46.614;14.276;2023-02-08T12:09:23;16.40;;;12.90;;
12314;SDS011;23886;46.614;14.276;2023-02-08T12:12:04;18.40;;;13.13;;
12314;SDS011;23886;46.614;14.276;2023-02-08T12:14:48;15.57;;;12.67;;
12314;SDS011;23886;46.614;14.276;2023-02-08T12:17:28;17.33;;;13.03;;
12314;SDS011;23886;46.614;14.276;2023-02-08T12:20:35;16.53;;;12.77;;
12314;SDS011;23886;46.614;14.276;2023-02-08T12:23:19;18.10;;;14.15;;
12314;SDS011;23886;46.614;14.276;2023-02-08T12:25:59;18.77;;;13.57;;
12314;SDS011;23886;46.614;14.276;2023-02-08T12:28:39;16.90;;;13.60;;
12314;SDS011;23886;46.614;14.276;2023-02-08T12:31:17;15.73;;;12.93;;
12314;SDS011;23886;46.614;14.276;2023-02-08T12:33:54;17.47;;;13.20;;
12314;SDS011;23886;46.614;14.276;2023-02-08T12:39:42;17.13;;;13.33;;
12314;SDS011;23886;46.614;14.276;2023-02-08T12:42:36;16.07;;;12.90;;
12314;SDS011;23886;46.614;14.276;2023-02-08T12:45:36;16.53;;;13.13;;
12314;SDS011;23886;46.614;14.276;2023-02-08T12:48:13;18.07;;;13.00;;
12314;SDS011;23886;46.614;14.276;2023-02-08T12:50:50;20.37;;;13.63;;
12314;SDS011;23886;46.614;14.276;2023-02-08T12:53:22;17.97;;;14.80;;
12314;SDS011;23886;46.614;14.276;2023-02-08T12:55:56;17.50;;;14.70;;
12314;SDS011;23886;46.614;14.276;2023-02-08T12:58:27;17.67;;;13.87;;
12314;SDS011;23886;46.614;14.276;2023-02-08T13:00:57;18.53;;;13.30;;
12314;SDS011;23886;46.614;14.276;2023-02-08T13:03:33;15.43;;;12.03;;
12314;SDS011;23886;46.614;14.276;2023-02-08T13:06:05;15.03;;;11.27;;
12314;SDS011;23886;46.614;14.276;2023-02-08T13:08:38;15.63;;;11.30;;
12314;SDS011;23886;46.614;14.276;2023-02-08T13:11:12;16.20;;;11.97;;
12314;SDS011;23886;46.614;14.276;2023-02-08T13:13:43;16.97;;;12.43;;
12314;SDS011;23886;46.614;14.276;2023-02-08T13:16:17;16.20;;;11.50;;
12314;SDS011;23886;46.614;14.276;2023-02-08T13:18:49;15.07;;;12.03;;
12314;SDS011;23886;46.614;14.276;2023-02-08T13:21:21;15.63;;;11.33;;
12314;SDS011;23886;46.614;14.276;2023-02-08T13:23:51;13.30;;;10.47;;
12314;SDS011;23886;46.614;14.276;2023-02-08T13:26:21;14.37;;;11.47;;
12314;SDS011;23886;46.614;14.276;2023-02-08T13:28:52;12.57;;;10.70;;
12314;SDS011;23886;46.614;14.276;2023-02-08T13:31:21;15.07;;;11.27;;
12314;SDS011;23886;46.614;14.276;2023-02-08T13:33:51;15.97;;;10.93;;
12314;SDS011;23886;46.614;14.276;2023-02-08T13:36:23;14.20;;;11.27;;
12314;SDS011;23886;46.614;14.276;2023-02-08T13:38:52;16.00;;;11.23;;
12314;SDS011;23886;46.614;14.276;2023-02-08T13:41:22;15.20;;;11.53;;
12314;SDS011;23886;46.614;14.276;2023-02-08T13:43:51;17.43;;;12.10;;
12314;SDS011;23886;46.614;14.276;2023-02-08T13:46:21;15.43;;;11.13;;
12314;SDS011;23886;46.614;14.276;2023-02-08T13:48:51;16.80;;;11.73;;
12314;SDS011;23886;46.614;14.276;2023-02-08T13:54:26;15.77;;;11.53;;
12314;SDS011;23886;46.614;14.276;2023-02-08T13:56:54;15.67;;;10.87;;
12314;SDS011;23886;46.614;14.276;2023-02-08T13:59:35;14.93;;;11.83;;
12314;SDS011;23886;46.614;14.276;2023-02-08T14:02:25;19.83;;;13.43;;
12314;SDS011;23886;46.614;14.276;2023-02-08T14:04:54;17.50;;;13.20;;
12314;SDS011;23886;46.614;14.276;2023-02-08T14:07:45;15.90;;;12.63;;
12314;SDS011;23886;46.614;14.276;2023-02-08T14:10:19;14.40;;;11.47;;
12314;SDS011;23886;46.614;14.276;2023-02-08T14:12:55;12.90;;;10.70;;
12314;SDS011;23886;46.614;14.276;2023-02-08T14:15:32;18.40;;;11.23;;
12314;SDS011;23886;46.614;14.276;2023-02-08T14:18:02;15.47;;;12.23;;
12314;SDS011;23886;46.614;14.276;2023-02-08T14:20:32;17.03;;;11.60;;
12314;SDS011;23886;46.614;14.276;2023-02-08T14:23:04;15.87;;;11.83;;
12314;SDS011;23886;46.614;14.276;2023-02-08T14:25:45;15.07;;;11.30;;
12314;SDS011;23886;46.614;14.276;2023-02-08T14:28:26;15.83;;;11.60;;
12314;SDS011;23886;46.614;14.276;2023-02-08T14:30:57;14.00;;;10.93;;
12314;SDS011;23886;46.614;14.276;2023-02-08T14:33:28;16.80;;;11.47;;
12314;SDS011;23886;46.614;14.276;2023-02-08T14:35:58;14.63;;;10.60;;
12314;SDS011;23886;46.614;14.276;2023-02-08T14:38:30;14.60;;;10.63;;
12314;SDS011;23886;46.614;14.276;2023-02-08T14:41:23;14.63;;;10.17;;
12314;SDS011;23886;46.614;14.276;2023-02-08T14:50:32;15.07;;;10.60;;
12314;SDS011;23886;46.614;14.276;2023-02-08T14:53:14;13.50;;;10.87;;
12314;SDS011;23886;46.614;14.276;2023-02-08T14:55:49;17.03;;;11.57;;
12314;SDS011;23886;46.614;14.276;2023-02-08T14:58:22;12.53;;;10.33;;
12314;SDS011;23886;46.614;14.276;2023-02-08T15:00:56;15.70;;;11.10;;